Time;durP1;ratioP1;P1;durP2;ratioP2;P2;SDS_P1;SDS_P2;PMS_P1;PMS_P2;Temp;Humidity;BMP_temperature;BMP_pressure;BME280_temperature;BME280_humidity;BME280_pressure;Samples;Min_cycle;Max_cycle;Signal;HPM_P1;HPM_P2
2024/04/25 00:00:30;;;;;;;12.07;4.35;;;;;;;;;;4956503;28;20125;-75
2024/04/25 00:02:56;;;;;;;4.93;3.90;;;;;;;;;;4978073;28;20047;-75
2024/04/25 00:05:21;;;;;;;5.15;3.97;;;;;;;;;;4979474;28;20506;-75
2024/04/25 00:07:48;;;;;;;4.22;3.63;;;;;;;;;;4945929;28;20392;-76
2024/04/25 00:10:13;;;;;;;6.40;3.70;;;;;;;;;;4979342;28;20046;-75
2024/04/25 00:12:40;;;;;;;4.38;3.00;;;;;;;;;;4980029;28;20087;-76
2024/04/25 00:15:07;;;;;;;3.47;3.17;;;;;;;;;;4981077;28;20109;-76
2024/04/25 00:17:32;;;;;;;4.45;3.80;;;;;;;;;;4979656;28;20066;-76
2024/04/25 00:19:58;;;;;;;2.83;2.63;;;;;;;;;;4978769;28;20445;-76
2024/04/25 00:22:25;;;;;;;3.45;3.25;;;;;;;;;;4980255;28;20050;-75
2024/04/25 00:24:51;;;;;;;2.78;2.60;;;;;;;;;;4980287;28;20031;-76
2024/04/25 00:27:17;;;;;;;3.67;3.15;;;;;;;;;;4975741;28;20065;-76
2024/04/25 00:29:42;;;;;;;3.40;3.00;;;;;;;;;;4972747;28;20093;-75
2024/04/25 00:32:08;;;;;;;2.88;2.70;;;;;;;;;;4977214;28;20057;-76
2024/04/25 00:34:34;;;;;;;2.60;2.45;;;;;;;;;;4977095;28;20134;-76
2024/04/25 00:37:00;;;;;;;3.17;2.92;;;;;;;;;;4972805;28;20069;-76
2024/04/25 00:39:26;;;;;;;3.38;3.08;;;;;;;;;;4974196;28;20042;-76
2024/04/25 00:41:52;;;;;;;4.13;3.83;;;;;;;;;;4978422;28;20057;-75
2024/04/25 00:44:18;;;;;;;3.28;2.97;;;;;;;;;;4974465;28;20035;-76
2024/04/25 00:46:44;;;;;;;2.58;2.47;;;;;;;;;;4954953;28;20045;-75
2024/04/25 00:49:10;;;;;;;3.10;2.90;;;;;;;;;;4953300;28;20117;-75
2024/04/25 00:51:36;;;;;;;3.03;2.53;;;;;;;;;;4953999;28;20039;-75
2024/04/25 00:54:02;;;;;;;3.25;3.05;;;;;;;;;;4953862;28;20034;-75
2024/04/25 00:56:28;;;;;;;4.00;3.03;;;;;;;;;;4969657;28;20042;-76
2024/04/25 00:58:54;;;;;;;3.42;3.13;;;;;;;;;;4964267;28;20043;-75
2024/04/25 01:01:21;;;;;;;3.47;3.28;;;;;;;;;;4934853;29;20070;-76
2024/04/25 01:03:47;;;;;;;2.90;2.70;;;;;;;;;;4951018;29;20516;-75
2024/04/25 01:06:12;;;;;;;2.45;2.35;;;;;;;;;;4934970;29;20078;-75
2024/04/25 01:08:38;;;;;;;2.65;2.30;;;;;;;;;;4950177;28;20040;-76
2024/04/25 01:11:05;;;;;;;2.80;2.60;;;;;;;;;;4950355;28;20051;-75
2024/04/25 01:13:31;;;;;;;3.60;3.40;;;;;;;;;;4950425;28;20118;-76
2024/04/25 01:15:56;;;;;;;2.97;2.78;;;;;;;;;;4952418;28;20122;-77
2024/04/25 01:18:22;;;;;;;3.33;2.88;;;;;;;;;;4950128;28;20101;-75
2024/04/25 01:20:48;;;;;;;4.18;3.45;;;;;;;;;;4952832;28;20051;-75
2024/04/25 01:23:14;;;;;;;3.90;3.53;;;;;;;;;;4952318;28;20043;-76
2024/04/25 01:25:40;;;;;;;4.43;3.10;;;;;;;;;;4952463;28;20535;-75
2024/04/25 01:28:06;;;;;;;3.60;3.40;;;;;;;;;;4953587;28;20097;-76
2024/04/25 01:30:32;;;;;;;5.30;3.50;;;;;;;;;;4952913;28;20058;-77
2024/04/25 01:32:59;;;;;;;7.60;2.90;;;;;;;;;;4954963;28;20132;-74
2024/04/25 01:35:28;;;;;;;7.38;3.22;;;;;;;;;;4955916;29;20068;-75
2024/04/25 01:37:59;;;;;;;3.55;2.80;;;;;;;;;;4965096;29;20031;-75
2024/04/25 01:40:25;;;;;;;3.33;2.97;;;;;;;;;;4966565;28;20043;-74
2024/04/25 01:42:51;;;;;;;3.80;2.92;;;;;;;;;;4964197;28;20047;-76
2024/04/25 01:45:17;;;;;;;4.93;2.72;;;;;;;;;;4966665;28;20067;-75
2024/04/25 01:47:43;;;;;;;3.10;2.70;;;;;;;;;;4961516;28;20039;-75
2024/04/25 01:50:09;;;;;;;3.60;3.30;;;;;;;;;;4956909;29;20054;-75
2024/04/25 01:52:34;;;;;;;3.40;3.10;;;;;;;;;;4962040;28;20043;-75
2024/04/25 01:55:01;;;;;;;2.78;2.58;;;;;;;;;;4966737;29;20039;-74
2024/04/25 01:57:30;;;;;;;4.03;3.72;;;;;;;;;;4957387;28;20038;-75
2024/04/25 01:59:55;;;;;;;4.28;3.33;;;;;;;;;;4985399;28;20053;-75
2024/04/25 02:02:21;;;;;;;3.45;3.15;;;;;;;;;;4981867;28;20082;-74
2024/04/25 02:04:47;;;;;;;3.05;2.75;;;;;;;;;;4976060;28;20042;-75
2024/04/25 02:07:13;;;;;;;3.45;3.15;;;;;;;;;;4972955;28;20043;-75
2024/04/25 02:09:39;;;;;;;3.92;3.45;;;;;;;;;;4936284;28;20042;-76
2024/04/25 02:12:05;;;;;;;3.88;3.58;;;;;;;;;;4953035;28;20042;-75
2024/04/25 02:14:31;;;;;;;3.50;3.22;;;;;;;;;;4969814;28;20035;-75
2024/04/25 02:16:57;;;;;;;3.40;3.10;;;;;;;;;;4969320;28;20430;-75
2024/04/25 02:19:24;;;;;;;3.35;3.15;;;;;;;;;;4968827;28;20066;-75
2024/04/25 05:29:09;;;;;;;7.78;3.10;;;;;;;;;;4995332;28;20584;-78
2024/04/25 05:31:35;;;;;;;3.15;2.90;;;;;;;;;;5007110;28;20510;-76
2024/04/25 05:34:01;;;;;;;10.73;3.22;;;;;;;;;;5007759;28;20026;-77
2024/04/25 05:36:27;;;;;;;5.28;3.30;;;;;;;;;;4989878;28;20046;-78
2024/04/25 05:38:53;;;;;;;3.13;2.92;;;;;;;;;;5006108;28;20824;-75
2024/04/25 05:41:19;;;;;;;2.35;2.25;;;;;;;;;;4984068;28;20049;-77
2024/04/25 05:43:45;;;;;;;4.15;2.80;;;;;;;;;;4988971;28;20455;-77
2024/04/25 05:46:11;;;;;;;5.68;3.03;;;;;;;;;;5004160;28;20038;-77
2024/04/25 05:48:37;;;;;;;3.10;2.90;;;;;;;;;;5003608;28;20053;-78
2024/04/25 05:51:03;;;;;;;6.63;3.00;;;;;;;;;;4990355;28;20042;-76
2024/04/25 05:53:29;;;;;;;2.90;2.45;;;;;;;;;;5008344;28;20088;-78
2024/04/25 05:55:55;;;;;;;3.15;2.85;;;;;;;;;;4970914;28;20038;-74
2024/04/25 05:58:21;;;;;;;5.05;2.88;;;;;;;;;;4965306;28;20061;-75
2024/04/25 06:00:47;;;;;;;8.95;3.60;;;;;;;;;;4975921;28;20077;-76
2024/04/25 06:03:13;;;;;;;7.90;3.58;;;;;;;;;;4993297;28;20050;-75
2024/04/25 06:05:39;;;;;;;5.72;3.13;;;;;;;;;;4994841;28;20040;-77
2024/04/25 06:08:06;;;;;;;5.82;3.03;;;;;;;;;;5011857;28;20100;-76
2024/04/25 06:10:32;;;;;;;2.90;2.70;;;;;;;;;;4990912;28;20050;-77
2024/04/25 06:12:58;;;;;;;4.25;3.28;;;;;;;;;;4977474;28;20486;-78
2024/04/25 06:15:24;;;;;;;4.95;2.85;;;;;;;;;;4993770;28;20572;-77
2024/04/25 06:17:49;;;;;;;5.45;2.97;;;;;;;;;;4959127;28;20077;-78
2024/04/25 06:20:20;;;;;;;3.97;3.10;;;;;;;;;;5008556;28;20510;-78
2024/04/25 06:22:46;;;;;;;7.55;3.38;;;;;;;;;;5010636;28;20071;-77
2024/04/25 06:25:12;;;;;;;4.47;2.65;;;;;;;;;;5010763;28;20581;-78
2024/04/25 06:27:38;;;;;;;3.40;3.05;;;;;;;;;;5010349;28;20038;-78
2024/04/25 06:30:04;;;;;;;4.18;3.30;;;;;;;;;;4992872;28;20065;-78
2024/04/25 06:32:32;;;;;;;4.85;2.92;;;;;;;;;;5011654;28;20068;-78
2024/04/25 06:34:59;;;;;;;6.43;3.97;;;;;;;;;;5009477;28;20039;-80
2024/04/25 06:37:27;;;;;;;5.72;3.03;;;;;;;;;;4949922;28;20037;-80
2024/04/25 06:40:18;;;;;;;6.15;2.97;;;;;;;;;;4959288;28;20990;-81
2024/04/25 06:42:44;;;;;;;8.95;3.20;;;;;;;;;;4975537;28;20050;-81
2024/04/25 06:48:27;;;;;;;4.80;3.22;;;;;;;;;;4986087;28;20057;-81
2024/04/25 06:50:58;;;;;;;4.38;3.22;;;;;;;;;;4981652;28;20053;-80
2024/04/25 06:53:24;;;;;;;6.72;3.30;;;;;;;;;;4964120;28;20034;-81
2024/04/25 06:56:15;;;;;;;4.07;3.10;;;;;;;;;;4985797;28;20469;-82
2024/04/25 06:58:42;;;;;;;3.58;3.10;;;;;;;;;;4980401;28;20054;-81
2024/04/25 07:01:10;;;;;;;8.20;2.92;;;;;;;;;;4961616;28;20038;-81
2024/04/25 07:03:38;;;;;;;11.02;2.92;;;;;;;;;;4947257;28;20042;-81
2024/04/25 07:06:07;;;;;;;4.80;3.25;;;;;;;;;;4975238;28;20061;-81
2024/04/25 07:09:40;;;;;;;3.70;3.20;;;;;;;;;;4977973;28;20100;-81
2024/04/25 07:12:11;;;;;;;2.70;2.50;;;;;;;;;;4975247;28;20069;-80
2024/04/25 07:14:37;;;;;;;4.53;2.80;;;;;;;;;;4945677;28;20049;-80
2024/04/25 07:17:14;;;;;;;5.40;2.88;;;;;;;;;;4960071;28;20039;-81
2024/04/25 07:19:45;;;;;;;4.97;3.10;;;;;;;;;;5006143;28;20046;-82
2024/04/25 07:22:10;;;;;;;5.95;3.10;;;;;;;;;;4957445;28;20053;-81
2024/04/25 07:24:36;;;;;;;3.28;2.90;;;;;;;;;;4934609;28;20054;-79
2024/04/25 07:27:07;;;;;;;5.07;3.10;;;;;;;;;;4974398;28;20053;-80
2024/04/25 07:29:37;;;;;;;5.65;2.92;;;;;;;;;;4953674;28;20061;-82
2024/04/25 07:32:08;;;;;;;7.50;3.10;;;;;;;;;;4947613;28;20050;-81
2024/04/25 07:34:34;;;;;;;3.38;3.03;;;;;;;;;;4979684;28;20038;-81
2024/04/25 07:37:04;;;;;;;3.40;3.15;;;;;;;;;;4943126;28;20045;-80
2024/04/25 07:39:32;;;;;;;5.40;3.30;;;;;;;;;;4984850;28;20116;-81
2024/04/25 07:41:59;;;;;;;4.00;3.10;;;;;;;;;;4993885;28;20487;-79
2024/04/25 07:44:24;;;;;;;8.73;3.28;;;;;;;;;;4945094;28;20153;-79
2024/04/25 07:46:50;;;;;;;13.30;3.20;;;;;;;;;;4942674;28;20522;-79
2024/04/25 07:49:17;;;;;;;5.28;3.28;;;;;;;;;;4942288;28;20050;-80
2024/04/25 07:51:46;;;;;;;4.45;3.13;;;;;;;;;;4993521;28;20449;-78
2024/04/25 07:54:37;;;;;;;3.28;3.00;;;;;;;;;;4976342;28;20125;-80
2024/04/25 07:57:03;;;;;;;4.07;3.15;;;;;;;;;;5010665;28;20096;-78
2024/04/25 07:59:32;;;;;;;3.53;3.20;;;;;;;;;;4993156;28;20044;-81
2024/04/25 08:01:58;;;;;;;4.28;3.08;;;;;;;;;;4993224;28;20351;-81
2024/04/25 08:04:24;;;;;;;3.50;3.30;;;;;;;;;;4975510;28;20050;-81
2024/04/25 08:06:50;;;;;;;9.98;3.40;;;;;;;;;;5009851;28;20041;-80
2024/04/25 08:09:16;;;;;;;2.67;2.47;;;;;;;;;;4994649;28;20057;-81
2024/04/25 08:11:42;;;;;;;3.33;3.00;;;;;;;;;;4997760;28;20060;-80
2024/04/25 08:14:08;;;;;;;4.07;3.10;;;;;;;;;;5012043;28;20033;-80
2024/04/25 08:16:34;;;;;;;5.88;3.05;;;;;;;;;;5010635;28;20180;-78
2024/04/25 08:19:00;;;;;;;5.13;3.17;;;;;;;;;;5012906;28;20054;-79
2024/04/25 08:21:25;;;;;;;5.35;3.03;;;;;;;;;;4985276;28;20045;-79
2024/04/25 08:23:51;;;;;;;3.97;3.67;;;;;;;;;;4982617;28;20109;-79
2024/04/25 08:26:17;;;;;;;10.55;2.80;;;;;;;;;;4992445;28;20100;-79
2024/04/25 08:28:43;;;;;;;3.47;3.13;;;;;;;;;;4990771;28;20049;-78
2024/04/25 08:31:09;;;;;;;4.32;3.13;;;;;;;;;;4998869;28;20271;-79
2024/04/25 08:33:36;;;;;;;2.60;2.40;;;;;;;;;;5009848;28;20042;-82
2024/04/25 08:36:04;;;;;;;4.60;3.40;;;;;;;;;;4994913;28;20048;-80
2024/04/25 08:38:33;;;;;;;5.63;3.20;;;;;;;;;;4991562;28;20053;-80
2024/04/25 08:40:58;;;;;;;4.15;3.15;;;;;;;;;;4940806;28;20095;-80
2024/04/25 08:43:24;;;;;;;6.82;3.08;;;;;;;;;;4974902;28;20038;-78
2024/04/25 08:45:51;;;;;;;6.47;3.00;;;;;;;;;;4959715;28;20145;-79
2024/04/25 08:48:19;;;;;;;4.25;2.80;;;;;;;;;;4956570;28;20046;-79
2024/04/25 08:50:48;;;;;;;6.32;4.05;;;;;;;;;;4992465;28;20057;-78
2024/04/25 08:53:15;;;;;;;5.57;3.28;;;;;;;;;;4953336;28;20050;-80
2024/04/25 08:55:56;;;;;;;3.60;3.30;;;;;;;;;;4977613;28;20445;-80
2024/04/25 08:58:24;;;;;;;3.35;2.80;;;;;;;;;;4925914;28;20065;-80
2024/04/25 09:00:53;;;;;;;5.97;3.25;;;;;;;;;;4951032;28;20052;-81
2024/04/25 09:03:21;;;;;;;4.63;3.45;;;;;;;;;;4953106;28;20514;-79
2024/04/25 09:05:56;;;;;;;8.45;3.55;;;;;;;;;;4971646;28;20100;-78
2024/04/25 09:08:28;;;;;;;9.88;2.63;;;;;;;;;;4973490;28;20077;-81
2024/04/25 09:10:56;;;;;;;5.63;3.60;;;;;;;;;;4957913;28;20347;-80
2024/04/25 09:13:22;;;;;;;7.22;3.40;;;;;;;;;;4934757;28;20089;-80
2024/04/25 09:15:53;;;;;;;12.07;3.67;;;;;;;;;;4970796;28;20038;-79
2024/04/25 09:18:20;;;;;;;9.80;3.78;;;;;;;;;;4966786;28;20100;-81
2024/04/25 09:20:49;;;;;;;4.55;3.88;;;;;;;;;;4957284;28;20156;-80
2024/04/25 09:23:18;;;;;;;7.20;3.50;;;;;;;;;;4952561;28;20606;-80
2024/04/25 09:25:43;;;;;;;5.65;3.30;;;;;;;;;;4954277;28;20034;-80
2024/04/25 09:28:10;;;;;;;2.97;2.75;;;;;;;;;;4940466;28;20072;-80
2024/04/25 09:31:09;;;;;;;5.88;3.45;;;;;;;;;;4975975;28;20061;-79
2024/04/25 09:33:42;;;;;;;3.78;3.45;;;;;;;;;;4968659;28;20042;-80
2024/04/25 09:36:13;;;;;;;7.82;3.78;;;;;;;;;;4964276;28;20070;-80
2024/04/25 09:39:06;;;;;;;8.60;4.32;;;;;;;;;;4967005;28;20081;-79
2024/04/25 09:41:32;;;;;;;4.03;3.50;;;;;;;;;;4963612;28;20046;-80
2024/04/25 09:43:59;;;;;;;7.78;3.90;;;;;;;;;;4956251;28;20050;-79
2024/04/25 09:46:29;;;;;;;7.55;3.70;;;;;;;;;;4962813;28;20042;-80
2024/04/25 09:48:54;;;;;;;5.78;4.40;;;;;;;;;;4961783;28;20054;-80
2024/04/25 09:51:26;;;;;;;13.38;4.28;;;;;;;;;;4972145;28;20042;-81
2024/04/25 09:53:59;;;;;;;8.07;4.05;;;;;;;;;;4994684;28;20048;-81
2024/04/25 09:56:26;;;;;;;5.20;3.97;;;;;;;;;;4979157;28;20092;-80
2024/04/25 09:58:54;;;;;;;8.80;4.10;;;;;;;;;;4962292;28;20050;-82
2024/04/25 10:01:22;;;;;;;14.10;4.38;;;;;;;;;;4980433;28;20034;-81
2024/04/25 10:04:14;;;;;;;8.07;3.97;;;;;;;;;;4972459;28;20052;-82
2024/04/25 10:06:48;;;;;;;10.93;4.32;;;;;;;;;;4981021;28;20033;-81
2024/04/25 10:09:14;;;;;;;5.05;3.78;;;;;;;;;;4962937;28;20064;-81
2024/04/25 10:11:41;;;;;;;13.90;3.90;;;;;;;;;;4946348;28;20041;-81
2024/04/25 10:14:07;;;;;;;6.13;3.80;;;;;;;;;;4939337;28;20050;-81
2024/04/25 10:16:33;;;;;;;8.18;3.75;;;;;;;;;;4998592;28;20635;-81
2024/04/25 10:22:21;;;;;;;9.23;3.90;;;;;;;;;;4986722;28;20030;-79
2024/04/25 10:24:55;;;;;;;12.88;4.47;;;;;;;;;;4981590;28;20135;-80
2024/04/25 10:27:34;;;;;;;;;;;;;;;;;;4960815;28;20046;-80
2024/04/25 10:30:03;;;;;;;5.25;3.80;;;;;;;;;;4973164;28;19925;-81
2024/04/25 10:32:34;;;;;;;5.53;3.70;;;;;;;;;;4966520;28;20081;-81
2024/04/25 10:35:03;;;;;;;6.20;3.97;;;;;;;;;;4965852;28;20045;-81
2024/04/25 10:37:38;;;;;;;9.35;3.95;;;;;;;;;;4998260;28;20056;-80
2024/04/25 10:40:13;;;;;;;10.63;3.90;;;;;;;;;;4959142;28;20046;-81
2024/04/25 10:42:40;;;;;;;8.13;4.20;;;;;;;;;;4948893;28;20133;-80
2024/04/25 10:45:15;;;;;;;5.47;3.80;;;;;;;;;;4985187;28;20115;-81
2024/04/25 10:47:46;;;;;;;3.80;3.42;;;;;;;;;;4995614;28;20038;-80
2024/04/25 10:50:17;;;;;;;14.10;4.05;;;;;;;;;;4994821;28;20049;-79
2024/04/25 10:52:55;;;;;;;10.43;3.88;;;;;;;;;;4986286;28;20050;-80
2024/04/25 10:55:24;;;;;;;7.68;3.97;;;;;;;;;;4976662;28;20061;-80
2024/04/25 10:58:21;;;;;;;5.90;2.90;;;;;;;;;;4973371;28;20626;-80
2024/04/25 11:00:54;;;;;;;4.43;3.53;;;;;;;;;;5001181;28;20030;-80
2024/04/25 11:03:29;;;;;;;9.73;3.40;;;;;;;;;;5007762;28;20564;-80
2024/04/25 11:05:55;;;;;;;7.78;3.90;;;;;;;;;;4970822;28;20053;-79
2024/04/25 11:08:21;;;;;;;10.48;3.70;;;;;;;;;;4948668;28;20065;-80
2024/04/25 11:10:47;;;;;;;11.55;3.90;;;;;;;;;;4983092;28;20042;-80
2024/04/25 11:13:14;;;;;;;19.33;3.92;;;;;;;;;;4969570;28;20137;-81
2024/04/25 11:16:00;;;;;;;8.48;3.72;;;;;;;;;;4974870;28;20077;-80
2024/04/25 11:18:27;;;;;;;3.88;3.47;;;;;;;;;;4947862;28;20049;-80
2024/04/25 11:21:02;;;;;;;9.52;4.40;;;;;;;;;;4962099;28;20046;-79
2024/04/25 11:23:35;;;;;;;6.47;3.50;;;;;;;;;;4964711;28;20034;-81
2024/04/25 11:26:04;;;;;;;10.57;3.80;;;;;;;;;;4963498;28;20554;-79
2024/04/25 11:28:30;;;;;;;8.77;4.03;;;;;;;;;;4936622;28;20065;-79
2024/04/25 11:30:56;;;;;;;7.57;4.35;;;;;;;;;;4941195;28;20046;-80
2024/04/25 11:33:22;;;;;;;7.55;3.95;;;;;;;;;;4960514;28;20069;-80
2024/04/25 11:35:48;;;;;;;6.80;3.63;;;;;;;;;;4948280;28;20053;-81
2024/04/25 11:38:17;;;;;;;10.55;4.30;;;;;;;;;;4944681;28;20042;-79
2024/04/25 11:40:45;;;;;;;13.73;4.35;;;;;;;;;;4950391;28;20081;-80
2024/04/25 11:43:15;;;;;;;15.48;3.97;;;;;;;;;;4947700;28;20042;-80
2024/04/25 11:45:44;;;;;;;9.30;3.95;;;;;;;;;;4950197;28;20050;-80
2024/04/25 11:48:12;;;;;;;15.73;4.03;;;;;;;;;;4955159;28;20129;-79
2024/04/25 11:50:38;;;;;;;11.63;4.63;;;;;;;;;;4957517;28;20054;-79
2024/04/25 11:53:08;;;;;;;6.68;3.75;;;;;;;;;;4961070;28;20046;-79
2024/04/25 11:55:34;;;;;;;12.73;4.32;;;;;;;;;;4972311;28;20498;-80
2024/04/25 11:58:00;;;;;;;10.00;3.90;;;;;;;;;;4977326;28;20054;-79
2024/04/25 12:00:27;;;;;;;8.63;4.07;;;;;;;;;;4967225;28;20065;-79
2024/04/25 12:02:53;;;;;;;18.95;5.03;;;;;;;;;;4964677;28;20523;-80
2024/04/25 12:05:19;;;;;;;13.13;3.50;;;;;;;;;;4965204;28;20532;-79
2024/04/25 12:07:46;;;;;;;7.55;3.97;;;;;;;;;;4995429;28;20049;-80
2024/04/25 12:10:13;;;;;;;11.73;4.20;;;;;;;;;;4954251;28;20545;-80
2024/04/25 12:13:09;;;;;;;14.05;4.53;;;;;;;;;;4966198;28;20097;-81
2024/04/25 12:15:35;;;;;;;17.13;4.90;;;;;;;;;;4966412;28;20053;-80
2024/04/25 12:18:04;;;;;;;7.18;4.00;;;;;;;;;;4946990;28;20533;-79
2024/04/25 12:20:36;;;;;;;12.25;4.20;;;;;;;;;;4958409;28;20101;-79
2024/04/25 12:23:02;;;;;;;15.25;4.40;;;;;;;;;;4939091;28;20038;-79
2024/04/25 12:25:30;;;;;;;13.98;4.45;;;;;;;;;;4930611;28;20046;-80
2024/04/25 12:27:57;;;;;;;20.25;4.30;;;;;;;;;;4944075;28;20053;-80
2024/04/25 12:30:26;;;;;;;17.73;4.40;;;;;;;;;;4950666;28;20129;-80
2024/04/25 12:33:11;;;;;;;18.08;4.53;;;;;;;;;;4977675;28;20487;-79
2024/04/25 12:35:38;;;;;;;14.35;4.85;;;;;;;;;;4959776;28;20484;-80
2024/04/25 12:38:07;;;;;;;13.43;4.60;;;;;;;;;;4953165;28;20077;-80
2024/04/25 12:40:33;;;;;;;20.52;4.53;;;;;;;;;;4929925;28;20038;-80
2024/04/25 12:43:08;;;;;;;11.20;4.28;;;;;;;;;;4978996;28;20545;-79
2024/04/25 12:45:53;;;;;;;15.18;4.20;;;;;;;;;;4965449;28;20037;-79
2024/04/25 12:48:31;;;;;;;13.77;4.85;;;;;;;;;;4933509;28;20041;-80
2024/04/25 12:51:22;;;;;;;13.30;4.30;;;;;;;;;;4982359;28;20049;-81
2024/04/25 12:53:49;;;;;;;13.32;4.03;;;;;;;;;;4958691;28;20057;-81
2024/04/25 12:56:15;;;;;;;27.77;4.60;;;;;;;;;;4945782;28;20046;-80
2024/04/25 12:58:41;;;;;;;18.60;4.35;;;;;;;;;;4944648;28;20132;-81
2024/04/25 13:01:07;;;;;;;16.30;4.32;;;;;;;;;;4957891;28;20042;-80
2024/04/25 13:03:59;;;;;;;19.13;4.30;;;;;;;;;;4962282;28;20038;-82
2024/04/25 13:06:24;;;;;;;20.65;4.35;;;;;;;;;;4962997;28;20400;-80
2024/04/25 13:08:51;;;;;;;18.60;4.35;;;;;;;;;;4971022;28;20057;-81
2024/04/25 13:11:18;;;;;;;20.45;4.65;;;;;;;;;;4966535;28;20419;-81
2024/04/25 13:13:51;;;;;;;21.67;4.25;;;;;;;;;;4979458;28;20080;-81
2024/04/25 13:16:18;;;;;;;14.80;4.85;;;;;;;;;;4961138;28;20042;-81
2024/04/25 13:18:54;;;;;;;13.65;3.90;;;;;;;;;;4960861;28;20403;-82
2024/04/25 13:21:21;;;;;;;10.40;4.20;;;;;;;;;;4952505;28;20069;-81
2024/04/25 13:23:46;;;;;;;16.13;4.18;;;;;;;;;;4945504;28;20034;-82
2024/04/25 13:26:39;;;;;;;16.40;4.53;;;;;;;;;;4985460;28;20050;-81
2024/04/25 13:29:05;;;;;;;17.75;5.15;;;;;;;;;;4964063;28;20077;-81
2024/04/25 13:31:41;;;;;;;18.70;4.20;;;;;;;;;;4950802;28;20069;-82
2024/04/25 13:34:14;;;;;;;18.13;4.28;;;;;;;;;;4956464;28;20052;-81
2024/04/25 13:36:40;;;;;;;5.97;3.63;;;;;;;;;;4957807;28;20104;-83
2024/04/25 13:39:06;;;;;;;13.57;4.32;;;;;;;;;;4941313;28;20082;-81
2024/04/25 13:41:42;;;;;;;12.07;4.00;;;;;;;;;;4946511;28;20046;-81
2024/04/25 13:44:29;;;;;;;17.33;4.32;;;;;;;;;;4971301;28;20043;-80
2024/04/25 13:46:58;;;;;;;12.98;4.38;;;;;;;;;;4962546;28;20046;-81
2024/04/25 13:49:24;;;;;;;13.25;3.85;;;;;;;;;;4941505;28;20497;-81
2024/04/25 13:51:50;;;;;;;10.70;3.70;;;;;;;;;;4956309;28;20042;-81
2024/04/25 13:54:16;;;;;;;15.65;4.57;;;;;;;;;;4958115;28;20115;-81
2024/04/25 13:56:43;;;;;;;15.45;4.95;;;;;;;;;;4944559;28;20120;-81
2024/04/25 13:59:10;;;;;;;20.48;3.85;;;;;;;;;;4963893;28;20065;-80
2024/04/25 14:01:40;;;;;;;15.65;4.38;;;;;;;;;;4962943;28;20045;-80
2024/04/25 14:04:06;;;;;;;18.20;4.40;;;;;;;;;;4961584;28;20185;-81
2024/04/25 14:06:41;;;;;;;23.17;3.90;;;;;;;;;;4947169;28;20048;-81
2024/04/25 14:09:07;;;;;;;17.38;5.05;;;;;;;;;;4941062;28;20053;-81
2024/04/25 14:11:41;;;;;;;14.23;4.10;;;;;;;;;;4964981;28;20052;-82
2024/04/25 14:14:09;;;;;;;21.95;4.30;;;;;;;;;;4962655;28;20030;-82
2024/04/25 14:17:01;;;;;;;20.25;4.53;;;;;;;;;;4988437;28;20069;-81
2024/04/25 14:19:27;;;;;;;11.07;4.25;;;;;;;;;;4964089;28;20125;-80
2024/04/25 14:22:02;;;;;;;14.77;4.18;;;;;;;;;;4973223;28;20049;-82
2024/04/25 14:24:35;;;;;;;13.93;4.72;;;;;;;;;;4969468;28;20085;-81
2024/04/25 14:30:15;;;;;;;16.17;3.72;;;;;;;;;;4984544;28;20076;-80
2024/04/25 14:33:26;;;;;;;11.57;3.78;;;;;;;;;;5002254;28;20085;-80
2024/04/25 14:35:52;;;;;;;14.95;5.13;;;;;;;;;;4970338;28;20061;-79
2024/04/25 14:38:21;;;;;;;16.33;3.88;;;;;;;;;;4967012;28;20038;-81
2024/04/25 14:40:47;;;;;;;13.48;3.75;;;;;;;;;;4966680;28;20048;-82
2024/04/25 14:43:15;;;;;;;18.33;4.22;;;;;;;;;;4980522;28;20037;-80
2024/04/25 14:45:41;;;;;;;20.85;4.53;;;;;;;;;;4980163;28;20061;-79
2024/04/25 14:48:07;;;;;;;11.90;4.75;;;;;;;;;;4993845;28;20423;-79
2024/04/25 14:50:33;;;;;;;11.45;4.22;;;;;;;;;;5012164;28;20049;-78
2024/04/25 14:53:01;;;;;;;18.08;4.40;;;;;;;;;;5011387;28;20077;-78
2024/04/25 14:55:26;;;;;;;20.73;4.43;;;;;;;;;;4994028;28;20065;-78
2024/04/25 14:57:52;;;;;;;17.58;4.10;;;;;;;;;;5011307;28;20068;-79
2024/04/25 15:00:18;;;;;;;15.52;3.55;;;;;;;;;;4976382;28;20049;-78
2024/04/25 15:02:44;;;;;;;15.43;4.30;;;;;;;;;;5011606;28;20462;-79
2024/04/25 15:05:11;;;;;;;21.23;4.40;;;;;;;;;;4974133;28;20085;-79
2024/04/25 15:07:37;;;;;;;12.82;4.20;;;;;;;;;;4969768;28;20045;-79
2024/04/25 15:10:03;;;;;;;24.30;4.18;;;;;;;;;;4993113;28;20136;-78
2024/04/25 15:12:34;;;;;;;16.33;4.78;;;;;;;;;;5011110;28;20570;-76
2024/04/25 15:15:00;;;;;;;18.52;3.90;;;;;;;;;;4967493;28;20073;-78
2024/04/25 15:17:26;;;;;;;19.67;5.32;;;;;;;;;;4993539;28;20069;-78
2024/04/25 15:19:52;;;;;;;17.40;3.92;;;;;;;;;;4990320;28;20072;-76
2024/04/25 15:22:18;;;;;;;15.70;3.72;;;;;;;;;;4973347;28;20050;-77
2024/04/25 15:24:47;;;;;;;11.30;3.65;;;;;;;;;;5008023;28;20048;-77
2024/04/25 15:27:14;;;;;;;19.38;4.18;;;;;;;;;;5010377;28;20041;-77
2024/04/25 15:29:40;;;;;;;18.58;4.25;;;;;;;;;;5010016;28;20049;-76
2024/04/25 15:32:06;;;;;;;12.07;4.50;;;;;;;;;;4975131;28;20057;-77
2024/04/25 15:34:32;;;;;;;14.00;3.90;;;;;;;;;;4973758;28;20045;-78
2024/04/25 15:36:58;;;;;;;14.65;4.03;;;;;;;;;;4992270;28;20410;-78
2024/04/25 15:39:26;;;;;;;18.52;3.75;;;;;;;;;;4992105;28;20041;-77
2024/04/25 15:41:55;;;;;;;15.57;4.05;;;;;;;;;;4992623;28;20053;-77
2024/04/25 15:44:21;;;;;;;16.50;4.10;;;;;;;;;;4978087;28;20038;-76
2024/04/25 15:46:47;;;;;;;12.88;4.18;;;;;;;;;;4977795;28;20042;-78
2024/04/25 15:49:13;;;;;;;20.08;4.40;;;;;;;;;;5008986;28;20128;-78
2024/04/25 15:51:39;;;;;;;13.95;4.13;;;;;;;;;;4993312;28;20073;-77
2024/04/25 15:54:05;;;;;;;18.45;3.60;;;;;;;;;;4976978;28;20045;-77
2024/04/25 15:56:50;;;;;;;20.63;4.30;;;;;;;;;;4980490;28;20140;-78
2024/04/25 15:59:16;;;;;;;11.40;4.60;;;;;;;;;;4959616;28;20095;-78
2024/04/25 16:01:42;;;;;;;19.60;4.88;;;;;;;;;;4976612;28;20410;-78
2024/04/25 16:04:10;;;;;;;17.25;4.57;;;;;;;;;;4993251;28;20049;-78
2024/04/25 16:06:38;;;;;;;21.80;4.85;;;;;;;;;;4977995;28;20505;-79
2024/04/25 16:09:04;;;;;;;12.20;4.72;;;;;;;;;;4975322;28;20181;-79
2024/04/25 16:11:31;;;;;;;21.75;4.18;;;;;;;;;;4953961;28;20173;-77
2024/04/25 16:13:58;;;;;;;15.73;4.25;;;;;;;;;;4975435;28;20061;-77
2024/04/25 16:16:24;;;;;;;16.73;4.18;;;;;;;;;;4976681;28;20038;-77
2024/04/25 16:18:50;;;;;;;24.90;5.43;;;;;;;;;;4958426;28;20054;-76
2024/04/25 16:21:16;;;;;;;21.88;5.65;;;;;;;;;;4975160;28;20049;-78
2024/04/25 16:23:42;;;;;;;22.67;4.80;;;;;;;;;;4981992;28;20042;-77
2024/04/25 16:26:08;;;;;;;17.17;4.72;;;;;;;;;;5008313;28;20041;-77
2024/04/25 16:28:35;;;;;;;21.15;5.03;;;;;;;;;;4959400;28;20050;-77
2024/04/25 16:31:01;;;;;;;28.33;4.78;;;;;;;;;;4992152;28;20096;-77
2024/04/25 16:33:27;;;;;;;22.75;4.80;;;;;;;;;;4968763;28;20464;-77
2024/04/25 16:35:54;;;;;;;13.60;3.95;;;;;;;;;;4988938;28;20426;-77
2024/04/25 16:38:20;;;;;;;25.13;4.30;;;;;;;;;;5000812;28;20042;-79
2024/04/25 16:40:47;;;;;;;15.57;4.22;;;;;;;;;;5001906;28;20097;-77
2024/04/25 16:43:25;;;;;;;17.50;4.15;;;;;;;;;;4960897;28;20041;-79
2024/04/25 16:45:52;;;;;;;24.42;4.57;;;;;;;;;;4972689;28;20038;-78
2024/04/25 16:48:18;;;;;;;15.15;4.15;;;;;;;;;;4974215;28;20038;-77
2024/04/25 16:50:44;;;;;;;11.57;3.90;;;;;;;;;;4993908;28;20046;-78
2024/04/25 16:53:10;;;;;;;10.82;4.10;;;;;;;;;;4991679;28;20046;-78
2024/04/25 16:55:36;;;;;;;26.67;4.35;;;;;;;;;;5010230;28;20513;-78
2024/04/25 16:58:02;;;;;;;23.23;4.13;;;;;;;;;;5011336;28;20042;-78
2024/04/25 17:00:29;;;;;;;14.75;4.82;;;;;;;;;;4992633;28;20622;-78
2024/04/25 17:02:55;;;;;;;26.17;4.70;;;;;;;;;;4993530;28;20133;-78
2024/04/25 17:05:22;;;;;;;14.98;4.25;;;;;;;;;;4961394;28;20533;-78
2024/04/25 17:07:48;;;;;;;15.88;4.32;;;;;;;;;;5010078;28;20148;-77
2024/04/25 17:10:14;;;;;;;17.90;4.50;;;;;;;;;;5000879;28;20419;-78
2024/04/25 17:12:47;;;;;;;10.95;4.28;;;;;;;;;;4952621;28;20046;-79
2024/04/25 17:15:41;;;;;;;16.90;4.95;;;;;;;;;;4979574;28;20514;-77
2024/04/25 17:18:07;;;;;;;15.57;5.28;;;;;;;;;;4977978;28;20447;-78
2024/04/25 17:20:36;;;;;;;21.13;4.45;;;;;;;;;;4973506;28;20042;-78
2024/04/25 17:23:02;;;;;;;25.52;4.53;;;;;;;;;;4965350;28;20048;-78
2024/04/25 17:25:29;;;;;;;14.63;5.03;;;;;;;;;;4962958;28;20033;-79
2024/04/25 17:27:55;;;;;;;21.05;5.25;;;;;;;;;;5012956;28;20052;-77
2024/04/25 17:30:21;;;;;;;19.55;4.78;;;;;;;;;;5008571;28;20033;-78
2024/04/25 17:32:47;;;;;;;16.05;5.30;;;;;;;;;;4985146;28;20062;-78
2024/04/25 17:35:14;;;;;;;17.63;5.00;;;;;;;;;;5002527;28;20111;-77
2024/04/25 17:37:42;;;;;;;21.55;5.07;;;;;;;;;;4989990;28;20360;-78
2024/04/25 17:40:08;;;;;;;22.98;4.75;;;;;;;;;;5004280;28;20054;-78
2024/04/25 17:42:35;;;;;;;18.40;5.75;;;;;;;;;;5018191;28;20522;-78
2024/04/25 17:45:04;;;;;;;30.00;6.40;;;;;;;;;;4999189;28;20050;-77
2024/04/25 17:47:30;;;;;;;17.83;6.68;;;;;;;;;;5016861;28;20033;-79
2024/04/25 17:49:56;;;;;;;27.20;8.77;;;;;;;;;;5001075;28;20048;-76
2024/04/25 17:52:22;;;;;;;34.35;6.47;;;;;;;;;;5003969;28;20042;-76
2024/04/25 17:54:48;;;;;;;29.27;9.48;;;;;;;;;;4991891;28;20049;-77
2024/04/25 17:57:17;;;;;;;34.17;8.77;;;;;;;;;;5028381;28;20130;-76
2024/04/25 17:59:43;;;;;;;17.48;7.40;;;;;;;;;;5011142;28;20042;-76
2024/04/25 18:02:11;;;;;;;21.48;7.80;;;;;;;;;;5026076;28;20041;-76
2024/04/25 18:04:38;;;;;;;14.85;5.80;;;;;;;;;;5009224;28;20064;-77